sensor_id;sensor_type;location;lat;lon;timestamp;pressure;altitude;pressure_sealevel;temperature;humidity
62779;BME280;48821;48.796;2.396;2023-01-29T00:00:36;102967.94;;;4.50;54.00
62779;BME280;48821;48.796;2.396;2023-01-29T00:01:48;102959.22;;;4.48;53.50
62779;BME280;48821;48.796;2.396;2023-01-29T00:03:00;102967.84;;;4.47;53.53
62779;BME280;48821;48.796;2.396;2023-01-29T00:04:12;102973.91;;;4.46;53.90
62779;BME280;48821;48.796;2.396;2023-01-29T00:05:23;102973.00;;;4.44;54.19
62779;BME280;48821;48.796;2.396;2023-01-29T00:06:35;102972.03;;;4.42;53.67
62779;BME280;48821;48.796;2.396;2023-01-29T00:07:49;102962.38;;;4.38;53.67
62779;BME280;48821;48.796;2.396;2023-01-29T00:09:01;102963.25;;;4.37;53.96
62779;BME280;48821;48.796;2.396;2023-01-29T00:10:12;102960.56;;;4.35;54.01
62779;BME280;48821;48.796;2.396;2023-01-29T00:11:24;102958.84;;;4.36;54.31
62779;BME280;48821;48.796;2.396;2023-01-29T00:12:36;102951.75;;;4.30;54.12
62779;BME280;48821;48.796;2.396;2023-01-29T00:13:48;102957.72;;;4.27;54.49
62779;BME280;48821;48.796;2.396;2023-01-29T00:15:00;102957.66;;;4.24;54.43
62779;BME280;48821;48.796;2.396;2023-01-29T00:16:12;102957.56;;;4.21;54.53
62779;BME280;48821;48.796;2.396;2023-01-29T00:17:24;102955.72;;;4.17;54.49
62779;BME280;48821;48.796;2.396;2023-01-29T00:18:38;102956.50;;;4.14;54.84
62779;BME280;48821;48.796;2.396;2023-01-29T00:19:48;102961.72;;;4.14;54.83
62779;BME280;48821;48.796;2.396;2023-01-29T00:21:00;102960.69;;;4.09;55.06
62779;BME280;48821;48.796;2.396;2023-01-29T00:22:12;102956.31;;;4.08;54.78
62779;BME280;48821;48.796;2.396;2023-01-29T00:23:25;102950.94;;;4.02;54.81
62779;BME280;48821;48.796;2.396;2023-01-29T00:24:36;102945.63;;;3.99;54.97
62779;BME280;48821;48.796;2.396;2023-01-29T00:25:48;102949.88;;;3.95;54.66
62779;BME280;48821;48.796;2.396;2023-01-29T00:26:59;102950.69;;;3.94;55.19
62779;BME280;48821;48.796;2.396;2023-01-29T00:28:12;102951.50;;;3.93;55.21
62779;BME280;48821;48.796;2.396;2023-01-29T00:29:23;102951.34;;;3.87;55.29
62779;BME280;48821;48.796;2.396;2023-01-29T00:30:36;102946.03;;;3.83;55.41
62779;BME280;48821;48.796;2.396;2023-01-29T00:31:48;102955.56;;;3.83;54.99
62779;BME280;48821;48.796;2.396;2023-01-29T00:32:59;102955.50;;;3.81;55.29
62779;BME280;48821;48.796;2.396;2023-01-29T00:34:11;102955.38;;;3.77;55.32
62779;BME280;48821;48.796;2.396;2023-01-29T00:35:23;102956.25;;;3.77;55.10
62779;BME280;48821;48.796;2.396;2023-01-29T00:36:35;102951.72;;;3.71;55.82
62779;BME280;48821;48.796;2.396;2023-01-29T00:37:47;102947.44;;;3.72;55.26
62779;BME280;48821;48.796;2.396;2023-01-29T00:39:00;102949.91;;;3.69;55.82
62779;BME280;48821;48.796;2.396;2023-01-29T00:40:21;102952.41;;;3.66;55.54
62779;BME280;48821;48.796;2.396;2023-01-29T00:41:33;102953.16;;;3.62;55.82
62779;BME280;48821;48.796;2.396;2023-01-29T00:43:03;102945.25;;;3.58;55.95
62779;BME280;48821;48.796;2.396;2023-01-29T00:44:33;102946.91;;;3.56;55.63
62779;BME280;48821;48.796;2.396;2023-01-29T00:46:03;102938.97;;;3.52;56.15
62779;BME280;48821;48.796;2.396;2023-01-29T00:47:15;102941.53;;;3.50;55.93
62779;BME280;48821;48.796;2.396;2023-01-29T00:48:43;102944.06;;;3.48;55.71
62779;BME280;48821;48.796;2.396;2023-01-29T00:49:57;102950.06;;;3.46;56.10
62779;BME280;48821;48.796;2.396;2023-01-29T00:51:08;102944.03;;;3.47;56.38
62779;BME280;48821;48.796;2.396;2023-01-29T00:52:20;102944.84;;;3.46;56.31
62779;BME280;48821;48.796;2.396;2023-01-29T00:53:34;102943.00;;;3.42;56.02
62779;BME280;48821;48.796;2.396;2023-01-29T00:54:46;102939.56;;;3.43;56.47
62779;BME280;48821;48.796;2.396;2023-01-29T00:55:58;102939.47;;;3.40;56.02
62779;BME280;48821;48.796;2.396;2023-01-29T00:57:10;102948.97;;;3.39;56.20
62779;BME280;48821;48.796;2.396;2023-01-29T00:58:22;102947.13;;;3.35;56.41
62779;BME280;48821;48.796;2.396;2023-01-29T00:59:37;102946.22;;;3.34;56.70
62779;BME280;48821;48.796;2.396;2023-01-29T01:00:49;102950.53;;;3.34;56.20
62779;BME280;48821;48.796;2.396;2023-01-29T01:02:00;102942.69;;;3.32;56.60
62779;BME280;48821;48.796;2.396;2023-01-29T01:03:29;102939.88;;;3.26;56.65
62779;BME280;48821;48.796;2.396;2023-01-29T01:04:43;102932.94;;;3.25;56.39
62779;BME280;48821;48.796;2.396;2023-01-29T01:06:03;102941.63;;;3.25;57.12
62779;BME280;48821;48.796;2.396;2023-01-29T01:07:14;102942.44;;;3.24;57.28
62779;BME280;48821;48.796;2.396;2023-01-29T01:08:26;102935.31;;;3.19;56.47
62779;BME280;48821;48.796;2.396;2023-01-29T01:09:56;102939.63;;;3.18;57.00
62779;BME280;48821;48.796;2.396;2023-01-29T01:11:26;102940.41;;;3.15;57.18
62779;BME280;48821;48.796;2.396;2023-01-29T01:12:38;102930.81;;;3.13;57.09
62779;BME280;48821;48.796;2.396;2023-01-29T01:13:50;102935.94;;;3.11;57.03
62779;BME280;48821;48.796;2.396;2023-01-29T01:15:02;102940.19;;;3.09;56.82
62779;BME280;48821;48.796;2.396;2023-01-29T01:16:16;102938.44;;;3.08;57.18
62779;BME280;48821;48.796;2.396;2023-01-29T01:17:28;102929.72;;;3.06;57.62
62779;BME280;48821;48.796;2.396;2023-01-29T01:18:40;102936.66;;;3.07;57.23
62779;BME280;48821;48.796;2.396;2023-01-29T01:19:51;102941.75;;;3.04;57.45
62779;BME280;48821;48.796;2.396;2023-01-29T01:21:03;102935.63;;;3.02;56.71
62779;BME280;48821;48.796;2.396;2023-01-29T01:22:15;102933.88;;;3.01;57.42
62779;BME280;48821;48.796;2.396;2023-01-29T01:23:26;102933.75;;;2.98;57.54
62779;BME280;48821;48.796;2.396;2023-01-29T01:24:38;102939.00;;;2.99;57.63
62779;BME280;48821;48.796;2.396;2023-01-29T01:25:50;102931.94;;;2.95;57.01
62779;BME280;48821;48.796;2.396;2023-01-29T01:27:02;102937.13;;;2.95;57.74
62779;BME280;48821;48.796;2.396;2023-01-29T01:28:14;102931.81;;;2.92;57.70
62779;BME280;48821;48.796;2.396;2023-01-29T01:29:26;102935.31;;;2.92;57.33
62779;BME280;48821;48.796;2.396;2023-01-29T01:30:38;102938.78;;;2.93;57.98
62779;BME280;48821;48.796;2.396;2023-01-29T01:31:52;102936.09;;;2.90;57.77
62779;BME280;48821;48.796;2.396;2023-01-29T01:33:03;102936.03;;;2.88;57.98
62779;BME280;48821;48.796;2.396;2023-01-29T01:34:15;102943.00;;;2.89;58.04
62779;BME280;48821;48.796;2.396;2023-01-29T01:35:27;102942.06;;;2.87;57.62
62779;BME280;48821;48.796;2.396;2023-01-29T01:36:39;102945.50;;;2.86;57.76
62779;BME280;48821;48.796;2.396;2023-01-29T01:37:51;102946.31;;;2.85;58.06
62779;BME280;48821;48.796;2.396;2023-01-29T01:39:03;102940.22;;;2.85;57.94
62779;BME280;48821;48.796;2.396;2023-01-29T01:40:18;102941.13;;;2.85;58.18
62779;BME280;48821;48.796;2.396;2023-01-29T01:41:32;102941.06;;;2.84;58.13
62779;BME280;48821;48.796;2.396;2023-01-29T01:42:54;102947.91;;;2.81;58.03
62779;BME280;48821;48.796;2.396;2023-01-29T01:44:06;102946.19;;;2.82;58.09
62779;BME280;48821;48.796;2.396;2023-01-29T01:45:30;102940.13;;;2.81;58.44
62779;BME280;48821;48.796;2.396;2023-01-29T01:46:42;102946.97;;;2.79;57.77
62779;BME280;48821;48.796;2.396;2023-01-29T01:48:14;102945.31;;;2.81;57.97
62779;BME280;48821;48.796;2.396;2023-01-29T01:49:27;102946.88;;;2.76;58.08
62779;BME280;48821;48.796;2.396;2023-01-29T01:50:44;102946.00;;;2.76;58.67
62779;BME280;48821;48.796;2.396;2023-01-29T01:51:56;102947.69;;;2.75;58.35
62779;BME280;48821;48.796;2.396;2023-01-29T01:53:10;102947.75;;;2.77;58.48
62779;BME280;48821;48.796;2.396;2023-01-29T01:54:26;102938.09;;;2.73;58.82
62779;BME280;48821;48.796;2.396;2023-01-29T01:55:50;102945.91;;;2.74;58.63
62779;BME280;48821;48.796;2.396;2023-01-29T01:57:07;102952.84;;;2.74;58.69
62779;BME280;48821;48.796;2.396;2023-01-29T01:58:47;102942.31;;;2.69;58.77
62779;BME280;48821;48.796;2.396;2023-01-29T02:00:07;102948.28;;;2.66;58.43
62779;BME280;48821;48.796;2.396;2023-01-29T02:01:24;102948.31;;;2.68;58.06
62779;BME280;48821;48.796;2.396;2023-01-29T02:02:44;102955.22;;;2.67;58.30
62779;BME280;48821;48.796;2.396;2023-01-29T02:04:17;102948.97;;;2.62;58.44
62779;BME280;48821;48.796;2.396;2023-01-29T02:05:49;102952.50;;;2.64;58.80
62779;BME280;48821;48.796;2.396;2023-01-29T02:07:22;102947.22;;;2.61;58.78
62779;BME280;48821;48.796;2.396;2023-01-29T02:08:59;102947.22;;;2.61;58.28
62779;BME280;48821;48.796;2.396;2023-01-29T02:10:41;102960.19;;;2.61;58.77
62779;BME280;48821;48.796;2.396;2023-01-29T02:11:51;102958.28;;;2.57;59.23
62779;BME280;48821;48.796;2.396;2023-01-29T02:13:05;102954.84;;;2.56;58.31
62779;BME280;48821;48.796;2.396;2023-01-29T02:14:17;102947.88;;;2.55;58.54
62779;BME280;48821;48.796;2.396;2023-01-29T02:15:29;102953.91;;;2.54;58.76
62779;BME280;48821;48.796;2.396;2023-01-29T02:16:41;102962.63;;;2.56;58.86
62779;BME280;48821;48.796;2.396;2023-01-29T02:17:53;102958.25;;;2.55;59.09
62779;BME280;48821;48.796;2.396;2023-01-29T02:19:11;102959.09;;;2.54;58.82
62779;BME280;48821;48.796;2.396;2023-01-29T02:20:29;102957.28;;;2.52;59.19
62779;BME280;48821;48.796;2.396;2023-01-29T02:27:09;102953.63;;;2.46;58.80
62779;BME280;48821;48.796;2.396;2023-01-29T02:28:39;102959.75;;;2.49;59.85
62779;BME280;48821;48.796;2.396;2023-01-29T02:31:11;102964.00;;;2.46;58.72
62779;BME280;48821;48.796;2.396;2023-01-29T02:36:50;102960.38;;;2.43;59.42
62779;BME280;48821;48.796;2.396;2023-01-29T02:39:51;102956.84;;;2.41;59.32
62779;BME280;48821;48.796;2.396;2023-01-29T02:41:14;102955.03;;;2.38;59.76
62779;BME280;48821;48.796;2.396;2023-01-29T02:42:37;102951.50;;;2.36;59.43
62779;BME280;48821;48.796;2.396;2023-01-29T02:43:57;102959.34;;;2.38;60.14
62779;BME280;48821;48.796;2.396;2023-01-29T02:45:12;102953.16;;;2.34;59.75
62779;BME280;48821;48.796;2.396;2023-01-29T02:46:34;102954.91;;;2.35;59.37
62779;BME280;48821;48.796;2.396;2023-01-29T02:48:00;102949.72;;;2.35;59.59
62779;BME280;48821;48.796;2.396;2023-01-29T02:54:58;102941.72;;;2.29;59.23
62779;BME280;48821;48.796;2.396;2023-01-29T02:56:21;102931.28;;;2.27;59.36
62779;BME280;48821;48.796;2.396;2023-01-29T02:57:37;102935.69;;;2.30;59.81
62779;BME280;48821;48.796;2.396;2023-01-29T02:58:59;102928.75;;;2.29;60.16
62779;BME280;48821;48.796;2.396;2023-01-29T03:00:20;102929.56;;;2.28;59.49
62779;BME280;48821;48.796;2.396;2023-01-29T03:01:47;102919.16;;;2.28;59.91
62779;BME280;48821;48.796;2.396;2023-01-29T03:03:05;102926.97;;;2.28;59.81
62779;BME280;48821;48.796;2.396;2023-01-29T03:06:34;102920.78;;;2.24;60.25
62779;BME280;48821;48.796;2.396;2023-01-29T03:07:54;102923.31;;;2.22;59.79
62779;BME280;48821;48.796;2.396;2023-01-29T03:09:14;102922.63;;;2.27;59.54
62779;BME280;48821;48.796;2.396;2023-01-29T03:10:42;102910.41;;;2.24;59.98
62779;BME280;48821;48.796;2.396;2023-01-29T03:16:34;102918.97;;;2.21;59.39
62779;BME280;48821;48.796;2.396;2023-01-29T03:18:20;102928.41;;;2.19;60.61
62779;BME280;48821;48.796;2.396;2023-01-29T03:19:43;102922.28;;;2.17;60.07
62779;BME280;48821;48.796;2.396;2023-01-29T03:21:05;102918.72;;;2.15;59.80
62779;BME280;48821;48.796;2.396;2023-01-29T03:22:54;102926.50;;;2.15;59.56
62779;BME280;48821;48.796;2.396;2023-01-29T03:24:11;102924.78;;;2.16;59.83
62779;BME280;48821;48.796;2.396;2023-01-29T03:25:50;102928.28;;;2.16;59.86
62779;BME280;48821;48.796;2.396;2023-01-29T03:27:36;102925.50;;;2.11;59.97
62779;BME280;48821;48.796;2.396;2023-01-29T03:31:14;102915.94;;;2.10;60.80
62779;BME280;48821;48.796;2.396;2023-01-29T03:33:03;102924.75;;;2.14;61.18
62779;BME280;48821;48.796;2.396;2023-01-29T03:34:23;102913.47;;;2.13;60.55
62779;BME280;48821;48.796;2.396;2023-01-29T03:36:05;102918.72;;;2.15;59.75
62779;BME280;48821;48.796;2.396;2023-01-29T03:38:08;102905.56;;;2.10;60.12
62779;BME280;48821;48.796;2.396;2023-01-29T10:05:54;102996.25;;;3.27;62.65
62779;BME280;48821;48.796;2.396;2023-01-29T10:20:25;102998.75;;;3.50;61.95
62779;BME280;48821;48.796;2.396;2023-01-29T10:23:27;102994.47;;;3.52;61.85
62779;BME280;48821;48.796;2.396;2023-01-29T10:25:15;102998.94;;;3.56;61.94
62779;BME280;48821;48.796;2.396;2023-01-29T10:26:30;102990.31;;;3.57;61.95
62779;BME280;48821;48.796;2.396;2023-01-29T10:28:13;102986.00;;;3.58;61.58
62779;BME280;48821;48.796;2.396;2023-01-29T10:29:28;102989.59;;;3.63;61.86
62779;BME280;48821;48.796;2.396;2023-01-29T10:32:33;102987.19;;;3.68;62.24
62779;BME280;48821;48.796;2.396;2023-01-29T10:34:15;102982.06;;;3.71;62.40
62779;BME280;48821;48.796;2.396;2023-01-29T10:37:41;102975.28;;;3.76;61.97
62779;BME280;48821;48.796;2.396;2023-01-29T10:38:53;102971.00;;;3.78;62.08
62779;BME280;48821;48.796;2.396;2023-01-29T10:40:19;102972.00;;;3.82;61.80
62779;BME280;48821;48.796;2.396;2023-01-29T10:45:44;102958.28;;;3.88;61.50
62779;BME280;48821;48.796;2.396;2023-01-29T10:49:09;102936.63;;;3.87;61.23
62779;BME280;48821;48.796;2.396;2023-01-29T10:54:00;102941.16;;;3.94;61.16
62779;BME280;48821;48.796;2.396;2023-01-29T10:55:31;102936.88;;;3.97;61.55
62779;BME280;48821;48.796;2.396;2023-01-29T10:58:00;102935.25;;;4.00;61.08
62779;BME280;48821;48.796;2.396;2023-01-29T11:00:11;102938.06;;;4.07;61.42
62779;BME280;48821;48.796;2.396;2023-01-29T11:01:26;102934.59;;;4.08;61.27
62779;BME280;48821;48.796;2.396;2023-01-29T11:02:43;102938.19;;;4.11;61.28
62779;BME280;48821;48.796;2.396;2023-01-29T11:03:58;102927.81;;;4.13;61.16
62779;BME280;48821;48.796;2.396;2023-01-29T11:05:19;102931.34;;;4.15;60.93
62779;BME280;48821;48.796;2.396;2023-01-29T11:06:35;102934.97;;;4.20;61.09
62779;BME280;48821;48.796;2.396;2023-01-29T11:07:48;102934.09;;;4.20;60.84
62779;BME280;48821;48.796;2.396;2023-01-29T11:09:27;102927.28;;;4.25;60.61
62779;BME280;48821;48.796;2.396;2023-01-29T11:10:47;102920.38;;;4.25;60.59
62779;BME280;48821;48.796;2.396;2023-01-29T11:12:09;102925.69;;;4.30;60.60
62779;BME280;48821;48.796;2.396;2023-01-29T11:13:28;102917.97;;;4.32;60.40
62779;BME280;48821;48.796;2.396;2023-01-29T11:14:45;102919.78;;;4.36;60.29
62779;BME280;48821;48.796;2.396;2023-01-29T11:15:59;102908.50;;;4.35;60.10
62779;BME280;48821;48.796;2.396;2023-01-29T11:17:19;102914.75;;;4.42;60.48
62779;BME280;48821;48.796;2.396;2023-01-29T11:20:24;102918.44;;;4.49;60.37
62779;BME280;48821;48.796;2.396;2023-01-29T11:21:54;102915.88;;;4.52;60.13
62779;BME280;48821;48.796;2.396;2023-01-29T11:23:30;102905.53;;;4.54;59.94
62779;BME280;48821;48.796;2.396;2023-01-29T11:25:17;102903.88;;;4.57;60.25
62779;BME280;48821;48.796;2.396;2023-01-29T11:26:34;102907.56;;;4.64;59.94
62779;BME280;48821;48.796;2.396;2023-01-29T11:27:51;102912.00;;;4.68;60.20
62779;BME280;48821;48.796;2.396;2023-01-29T11:29:03;102910.31;;;4.70;60.29
62779;BME280;48821;48.796;2.396;2023-01-29T11:30:22;102907.72;;;4.72;60.06
62779;BME280;48821;48.796;2.396;2023-01-29T11:31:40;102910.47;;;4.77;59.85
62779;BME280;48821;48.796;2.396;2023-01-29T11:33:19;102921.03;;;4.81;60.08
62779;BME280;48821;48.796;2.396;2023-01-29T11:34:29;102903.72;;;4.83;59.77
62779;BME280;48821;48.796;2.396;2023-01-29T11:35:44;102911.59;;;4.87;59.76
62779;BME280;48821;48.796;2.396;2023-01-29T11:37:01;102903.84;;;4.90;59.58
62779;BME280;48821;48.796;2.396;2023-01-29T11:38:27;102905.69;;;4.94;59.53
62779;BME280;48821;48.796;2.396;2023-01-29T11:39:43;102894.44;;;4.95;59.71
62779;BME280;48821;48.796;2.396;2023-01-29T11:41:15;102892.81;;;4.99;59.35
62779;BME280;48821;48.796;2.396;2023-01-29T11:42:30;102895.47;;;5.02;59.01
62779;BME280;48821;48.796;2.396;2023-01-29T11:43:44;102893.78;;;5.04;58.68
62779;BME280;48821;48.796;2.396;2023-01-29T11:44:55;102892.16;;;5.07;59.11
62779;BME280;48821;48.796;2.396;2023-01-29T11:46:12;102885.22;;;5.08;58.98
62779;BME280;48821;48.796;2.396;2023-01-29T11:47:29;102889.69;;;5.14;59.15
62779;BME280;48821;48.796;2.396;2023-01-29T11:48:46;102884.47;;;5.14;59.12
62779;BME280;48821;48.796;2.396;2023-01-29T11:50:04;102881.91;;;5.15;58.58
62779;BME280;48821;48.796;2.396;2023-01-29T11:51:28;102881.94;;;5.17;58.50
62779;BME280;48821;48.796;2.396;2023-01-29T11:52:44;102882.91;;;5.21;58.58
62779;BME280;48821;48.796;2.396;2023-01-29T11:54:01;102876.84;;;5.22;58.86
62779;BME280;48821;48.796;2.396;2023-01-29T11:55:21;102884.75;;;5.26;58.72
62779;BME280;48821;48.796;2.396;2023-01-29T11:56:39;102880.53;;;5.30;58.36
62779;BME280;48821;48.796;2.396;2023-01-29T11:58:03;102874.41;;;5.29;58.64
62779;BME280;48821;48.796;2.396;2023-01-29T11:59:43;102868.41;;;5.32;58.25
62779;BME280;48821;48.796;2.396;2023-01-29T12:00:59;102880.66;;;5.36;58.65
62779;BME280;48821;48.796;2.396;2023-01-29T12:02:27;102879.03;;;5.42;58.86
62779;BME280;48821;48.796;2.396;2023-01-29T12:03:52;102877.34;;;5.44;58.87
62779;BME280;48821;48.796;2.396;2023-01-29T12:05:26;102871.31;;;5.46;58.76
62779;BME280;48821;48.796;2.396;2023-01-29T12:06:41;102870.59;;;5.52;58.98
62779;BME280;48821;48.796;2.396;2023-01-29T12:07:56;102876.72;;;5.56;58.62
62779;BME280;48821;48.796;2.396;2023-01-29T12:09:14;102872.47;;;5.59;58.71
62779;BME280;48821;48.796;2.396;2023-01-29T12:10:37;102878.63;;;5.63;57.93
62779;BME280;48821;48.796;2.396;2023-01-29T12:11:49;102871.75;;;5.65;58.14
62779;BME280;48821;48.796;2.396;2023-01-29T12:14:29;102869.34;;;5.74;57.89
62779;BME280;48821;48.796;2.396;2023-01-29T12:15:43;102865.97;;;5.80;58.25
62779;BME280;48821;48.796;2.396;2023-01-29T12:17:05;102859.09;;;5.84;58.47
62779;BME280;48821;48.796;2.396;2023-01-29T12:23:59;102852.41;;;5.97;57.62
62779;BME280;48821;48.796;2.396;2023-01-29T12:31:05;102851.69;;;6.06;56.88
62779;BME280;48821;48.796;2.396;2023-01-29T12:32:42;102850.91;;;6.07;57.25
62779;BME280;48821;48.796;2.396;2023-01-29T12:40:27;102830.03;;;6.08;56.95
62779;BME280;48821;48.796;2.396;2023-01-29T12:42:19;102830.16;;;6.15;56.56
62779;BME280;48821;48.796;2.396;2023-01-29T12:45:51;102825.88;;;6.18;55.96
62779;BME280;48821;48.796;2.396;2023-01-29T12:47:54;102825.88;;;6.18;55.54
62779;BME280;48821;48.796;2.396;2023-01-29T12:49:47;102826.75;;;6.19;55.88
62779;BME280;48821;48.796;2.396;2023-01-29T12:51:25;102822.41;;;6.19;55.05
62779;BME280;48821;48.796;2.396;2023-01-29T14:12:52;102710.97;;;6.18;54.02
62779;BME280;48821;48.796;2.396;2023-01-29T14:16:41;102704.03;;;6.19;53.75
62779;BME280;48821;48.796;2.396;2023-01-29T14:20:00;102694.41;;;6.16;53.92
62779;BME280;48821;48.796;2.396;2023-01-29T14:21:48;102686.50;;;6.13;54.29
62779;BME280;48821;48.796;2.396;2023-01-29T14:27:22;102703.97;;;6.17;53.71
62779;BME280;48821;48.796;2.396;2023-01-29T14:28:52;102694.41;;;6.16;53.57
62779;BME280;48821;48.796;2.396;2023-01-29T14:30:26;102699.63;;;6.18;53.58
62779;BME280;48821;48.796;2.396;2023-01-29T14:31:59;102694.41;;;6.18;53.89
62779;BME280;48821;48.796;2.396;2023-01-29T14:35:21;102692.69;;;6.18;53.47
62779;BME280;48821;48.796;2.396;2023-01-29T14:44:57;102679.63;;;6.17;53.74
62779;BME280;48821;48.796;2.396;2023-01-29T14:46:43;102683.13;;;6.19;54.00
62779;BME280;48821;48.796;2.396;2023-01-29T14:49:55;102681.47;;;6.24;53.90
62779;BME280;48821;48.796;2.396;2023-01-29T14:54:59;102678.91;;;6.27;53.75
62779;BME280;48821;48.796;2.396;2023-01-29T14:56:38;102675.44;;;6.28;53.57
62779;BME280;48821;48.796;2.396;2023-01-29T14:57:55;102675.44;;;6.28;53.57
62779;BME280;48821;48.796;2.396;2023-01-29T14:59:25;102675.50;;;6.32;54.04
62779;BME280;48821;48.796;2.396;2023-01-29T15:00:50;102665.06;;;6.32;53.93
62779;BME280;48821;48.796;2.396;2023-01-29T15:02:26;102671.16;;;6.32;53.95
62779;BME280;48821;48.796;2.396;2023-01-29T15:03:55;102669.41;;;6.33;54.00
62779;BME280;48821;48.796;2.396;2023-01-29T15:05:29;102668.56;;;6.34;53.98
62779;BME280;48821;48.796;2.396;2023-01-29T15:06:56;102676.47;;;6.37;53.91
62779;BME280;48821;48.796;2.396;2023-01-29T15:08:31;102667.69;;;6.35;53.89
62779;BME280;48821;48.796;2.396;2023-01-29T15:11:43;102662.47;;;6.35;54.18
62779;BME280;48821;48.796;2.396;2023-01-29T15:13:07;102657.28;;;6.36;54.00
62779;BME280;48821;48.796;2.396;2023-01-29T15:15:48;102664.31;;;6.42;54.39
62779;BME280;48821;48.796;2.396;2023-01-29T15:17:27;102666.09;;;6.45;54.19
62779;BME280;48821;48.796;2.396;2023-01-29T15:18:42;102663.50;;;6.45;54.56
62779;BME280;48821;48.796;2.396;2023-01-29T15:19:53;102667.88;;;6.47;54.62
62779;BME280;48821;48.796;2.396;2023-01-29T15:21:14;102658.31;;;6.48;54.14
62779;BME280;48821;48.796;2.396;2023-01-29T15:22:50;102661.00;;;6.51;54.82
62779;BME280;48821;48.796;2.396;2023-01-29T15:24:11;102668.84;;;6.52;54.17
62779;BME280;48821;48.796;2.396;2023-01-29T15:25:51;102667.13;;;6.53;53.82
62779;BME280;48821;48.796;2.396;2023-01-29T15:27:31;102664.50;;;6.55;53.89
62779;BME280;48821;48.796;2.396;2023-01-29T15:28:54;102665.44;;;6.57;53.62
62779;BME280;48821;48.796;2.396;2023-01-29T15:30:22;102661.94;;;6.58;53.85
62779;BME280;48821;48.796;2.396;2023-01-29T15:31:41;102666.28;;;6.57;53.47
62779;BME280;48821;48.796;2.396;2023-01-29T15:33:05;102662.84;;;6.58;53.37
62779;BME280;48821;48.796;2.396;2023-01-29T15:34:33;102661.13;;;6.62;53.66
62779;BME280;48821;48.796;2.396;2023-01-29T15:36:00;102659.44;;;6.64;53.31
62779;BME280;48821;48.796;2.396;2023-01-29T15:37:32;102662.06;;;6.64;53.26
62779;BME280;48821;48.796;2.396;2023-01-29T15:40:26;102657.75;;;6.69;53.67
62779;BME280;48821;48.796;2.396;2023-01-29T15:42:03;102653.41;;;6.68;54.21
62779;BME280;48821;48.796;2.396;2023-01-29T15:43:28;102656.97;;;6.73;54.10
62779;BME280;48821;48.796;2.396;2023-01-29T15:44:44;102661.31;;;6.74;53.86
62779;BME280;48821;48.796;2.396;2023-01-29T15:47:29;102666.53;;;6.74;53.95
62779;BME280;48821;48.796;2.396;2023-01-29T15:48:52;102667.41;;;6.73;54.01
62779;BME280;48821;48.796;2.396;2023-01-29T15:50:13;102670.94;;;6.77;53.38
62779;BME280;48821;48.796;2.396;2023-01-29T15:51:26;102678.78;;;6.75;54.24
62779;BME280;48821;48.796;2.396;2023-01-29T15:52:40;102670.94;;;6.77;54.25
62779;BME280;48821;48.796;2.396;2023-01-29T15:53:57;102673.56;;;6.77;53.90
62779;BME280;48821;48.796;2.396;2023-01-29T15:55:21;102677.91;;;6.77;53.49
62779;BME280;48821;48.796;2.396;2023-01-29T15:56:37;102676.22;;;6.79;53.93
62779;BME280;48821;48.796;2.396;2023-01-29T15:57:56;102676.22;;;6.79;54.03
62779;BME280;48821;48.796;2.396;2023-01-29T15:59:19;102675.31;;;6.78;53.68
62779;BME280;48821;48.796;2.396;2023-01-29T16:00:32;102677.91;;;6.77;53.14
62779;BME280;48821;48.796;2.396;2023-01-29T16:01:44;102675.28;;;6.75;53.25
62779;BME280;48821;48.796;2.396;2023-01-29T16:02:56;102683.16;;;6.78;53.02
62779;BME280;48821;48.796;2.396;2023-01-29T16:04:14;102676.22;;;6.79;52.83
62779;BME280;48821;48.796;2.396;2023-01-29T16:05:29;102678.78;;;6.77;53.12
62779;BME280;48821;48.796;2.396;2023-01-29T16:06:44;102677.91;;;6.77;53.33
62779;BME280;48821;48.796;2.396;2023-01-29T16:08:04;102674.50;;;6.81;53.11
62779;BME280;48821;48.796;2.396;2023-01-29T16:09:26;102665.75;;;6.79;52.85
62779;BME280;48821;48.796;2.396;2023-01-29T16:10:44;102672.66;;;6.77;53.50
62779;BME280;48821;48.796;2.396;2023-01-29T16:12:03;102675.31;;;6.78;53.10
62779;BME280;48821;48.796;2.396;2023-01-29T16:13:23;102681.44;;;6.79;53.31
62779;BME280;48821;48.796;2.396;2023-01-29T16:14:38;102670.09;;;6.78;53.53
62779;BME280;48821;48.796;2.396;2023-01-29T16:15:56;102668.31;;;6.77;53.20
62779;BME280;48821;48.796;2.396;2023-01-29T16:17:31;102678.84;;;6.82;53.16
62779;BME280;48821;48.796;2.396;2023-01-29T16:19:25;102677.94;;;6.80;53.25
62779;BME280;48821;48.796;2.396;2023-01-29T16:20:58;102673.59;;;6.80;53.23
62779;BME280;48821;48.796;2.396;2023-01-29T16:22:16;102684.06;;;6.79;53.02
62779;BME280;48821;48.796;2.396;2023-01-29T16:23:30;102681.44;;;6.79;53.06
62779;BME280;48821;48.796;2.396;2023-01-29T16:24:48;102679.66;;;6.78;52.64
62779;BME280;48821;48.796;2.396;2023-01-29T16:26:07;102670.94;;;6.77;52.89
62779;BME280;48821;48.796;2.396;2023-01-29T16:27:23;102674.44;;;6.78;53.23
62779;BME280;48821;48.796;2.396;2023-01-29T16:28:43;102684.06;;;6.79;53.62
62779;BME280;48821;48.796;2.396;2023-01-29T16:29:55;102676.16;;;6.75;53.53
62779;BME280;48821;48.796;2.396;2023-01-29T16:31:08;102670.94;;;6.75;53.53
62779;BME280;48821;48.796;2.396;2023-01-29T16:32:26;102665.69;;;6.75;53.34
62779;BME280;48821;48.796;2.396;2023-01-29T16:33:49;102677.91;;;6.77;53.35
62779;BME280;48821;48.796;2.396;2023-01-29T16:35:03;102675.31;;;6.78;53.51
62779;BME280;48821;48.796;2.396;2023-01-29T16:36:20;102678.78;;;6.77;53.14
62779;BME280;48821;48.796;2.396;2023-01-29T16:37:34;102668.31;;;6.77;53.33
62779;BME280;48821;48.796;2.396;2023-01-29T16:38:52;102669.22;;;6.79;53.09
62779;BME280;48821;48.796;2.396;2023-01-29T16:40:20;102681.44;;;6.79;53.25
62779;BME280;48821;48.796;2.396;2023-01-29T16:41:35;102675.31;;;6.78;53.09
62779;BME280;48821;48.796;2.396;2023-01-29T16:42:48;102668.31;;;6.75;53.00
62779;BME280;48821;48.796;2.396;2023-01-29T16:45:31;102677.88;;;6.73;53.50
62779;BME280;48821;48.796;2.396;2023-01-29T16:46:47;102686.59;;;6.75;53.26